createdAt,value
2019-04-14T00:01:54.512Z,3.81
2019-04-14T00:04:31.263Z,3.86
2019-04-14T00:06:59.134Z,3.93
2019-04-14T00:09:27.305Z,3.89
2019-04-14T00:11:54.922Z,3.88
2019-04-14T00:14:22.926Z,3.90
2019-04-14T00:16:51.030Z,3.95
2019-04-14T00:19:19.348Z,4.07
2019-04-14T00:21:47.639Z,4.05
2019-04-14T00:24:16.185Z,3.99
2019-04-14T00:26:44.486Z,3.98
2019-04-14T00:29:13.034Z,3.94
2019-04-14T00:31:41.193Z,3.87
2019-04-14T00:34:26.796Z,3.90
2019-04-14T00:37:25.430Z,3.88
2019-04-14T00:39:55.466Z,3.87
2019-04-14T00:42:40.941Z,3.86
2019-04-14T00:45:32.273Z,3.79
2019-04-14T00:48:01.023Z,3.74
2019-04-14T00:50:23.298Z,3.66
2019-04-14T00:52:50.729Z,3.58
2019-04-14T00:55:18.320Z,3.55
2019-04-14T00:57:46.274Z,3.50
2019-04-14T01:00:17.280Z,3.54
2019-04-14T01:02:43.177Z,3.57
2019-04-14T01:05:10.953Z,3.49
2019-04-14T01:07:39.123Z,3.48
2019-04-14T01:10:06.311Z,3.46
2019-04-14T01:12:34.199Z,3.39
2019-04-14T01:15:01.425Z,3.37
2019-04-14T01:17:28.990Z,3.26
2019-04-14T01:19:57.002Z,3.29
2019-04-14T01:22:24.924Z,3.34
2019-04-14T01:24:53.284Z,3.38
2019-04-14T01:27:21.110Z,3.44
2019-04-14T01:29:49.443Z,3.43
2019-04-14T01:32:17.582Z,3.46
2019-04-14T01:34:45.546Z,3.51
2019-04-14T01:37:13.670Z,3.54
2019-04-14T01:39:41.465Z,3.62
2019-04-14T01:42:09.523Z,3.65
2019-04-14T01:44:37.358Z,3.71
2019-04-14T01:47:05.249Z,3.73
2019-04-14T01:49:33.292Z,3.78
2019-04-14T01:52:23.197Z,3.73
2019-04-14T01:55:11.199Z,3.76
2019-04-14T01:57:50.926Z,3.71
2019-04-14T02:00:36.415Z,3.72
2019-04-14T02:03:06.110Z,3.77
2019-04-14T02:05:34.306Z,3.71
2019-04-14T02:08:02.355Z,3.75
2019-04-14T02:10:30.477Z,3.71
2019-04-14T02:12:58.459Z,3.77
2019-04-14T02:15:26.574Z,3.79
2019-04-14T02:17:54.655Z,3.75
2019-04-14T02:20:22.925Z,3.76
2019-04-14T02:22:50.620Z,3.69
2019-04-14T02:25:18.849Z,3.62
2019-04-14T02:27:47.236Z,3.57
2019-04-14T02:30:19.573Z,3.61
2019-04-14T02:33:21.670Z,3.63
2019-04-14T02:38:14.044Z,3.71
2019-04-14T02:43:04.328Z,3.70
2019-04-14T02:45:51.986Z,3.69
2019-04-14T02:48:15.133Z,3.69
2019-04-14T02:50:32.358Z,3.68
2019-04-14T02:53:12.275Z,3.71
2019-04-14T02:55:29.919Z,3.79
2019-04-14T02:58:03.515Z,3.84
2019-04-14T03:00:54.221Z,3.81
2019-04-14T03:03:03.472Z,3.77
2019-04-14T03:08:04.234Z,3.79
2019-04-14T03:10:34.043Z,3.82
2019-04-14T03:15:35.443Z,3.73
2019-04-14T03:18:24.151Z,3.71
2019-04-14T03:21:07.371Z,3.68
2019-04-14T03:23:46.360Z,3.73
2019-04-14T03:26:15.404Z,3.78
2019-04-14T03:28:48.792Z,3.75
2019-04-14T03:31:41.741Z,3.71
2019-04-14T03:37:43.406Z,3.69
2019-04-14T03:38:53.304Z,3.66
2019-04-14T03:43:41.375Z,3.64
2019-04-14T03:46:21.345Z,3.66
2019-04-14T03:51:17.394Z,3.63
2019-04-14T03:53:39.996Z,3.65
2019-04-14T03:56:22.907Z,3.70
2019-04-14T03:58:51.128Z,3.68
2019-04-14T04:01:19.137Z,3.68
2019-04-14T04:03:47.777Z,3.66
2019-04-14T04:06:15.982Z,3.68
2019-04-14T04:08:44.140Z,3.65
2019-04-14T04:11:12.597Z,3.67
2019-04-14T04:13:41.165Z,3.64
2019-04-14T04:16:14.090Z,3.66
2019-04-14T04:18:51.243Z,3.62
2019-04-14T04:21:35.559Z,3.53
2019-04-14T04:24:30.608Z,3.50
2019-04-14T04:27:07.449Z,3.49
2019-04-14T04:29:59.221Z,3.36
2019-04-14T04:32:46.929Z,3.32
2019-04-14T04:35:24.357Z,3.39
2019-04-14T04:37:58.578Z,3.44
2019-04-14T04:40:29.065Z,3.47
2019-04-14T04:42:56.935Z,3.49
2019-04-14T04:45:24.207Z,3.50
2019-04-14T04:47:51.623Z,3.52
2019-04-14T04:50:19.314Z,3.53
2019-04-14T04:52:47.544Z,3.57
2019-04-14T04:55:15.591Z,3.59
2019-04-14T04:57:43.790Z,3.65
2019-04-14T05:00:13.460Z,3.64
2019-04-14T05:02:41.698Z,3.64
2019-04-14T05:05:45.047Z,3.64
2019-04-14T05:08:13.088Z,3.62
2019-04-14T05:10:45.757Z,3.65
2019-04-14T05:13:16.946Z,3.69
2019-04-14T05:15:47.313Z,3.78
2019-04-14T05:18:22.418Z,3.89
2019-04-14T05:20:50.686Z,4.01
2019-04-14T05:23:19.107Z,4.17
2019-04-14T05:25:47.376Z,4.30
2019-04-14T05:28:15.579Z,4.52
2019-04-14T05:30:43.665Z,4.78
2019-04-14T05:33:12.008Z,5.20
2019-04-14T05:35:40.111Z,5.90
2019-04-14T05:38:08.447Z,6.57
2019-04-14T05:40:36.414Z,7.64
2019-04-14T05:43:04.550Z,8.66
2019-04-14T05:45:32.751Z,9.29
2019-04-14T05:48:00.986Z,9.70
2019-04-14T05:50:29.263Z,10.59
2019-04-14T05:52:56.448Z,10.85
2019-04-14T05:55:24.216Z,11.71
2019-04-14T05:57:52.506Z,11.94
2019-04-14T06:00:21.092Z,12.45
2019-04-14T06:02:48.551Z,14.00
2019-04-14T06:05:16.606Z,15.30
2019-04-14T06:07:43.886Z,15.77
2019-04-14T06:10:11.222Z,16.29
2019-04-14T06:12:38.387Z,16.97
2019-04-14T06:15:05.685Z,16.99
2019-04-14T06:17:33.243Z,16.47
2019-04-14T06:20:00.418Z,17.16
2019-04-14T06:22:27.621Z,18.43
2019-04-14T06:24:55.074Z,19.40
2019-04-14T06:27:22.291Z,20.10
2019-04-14T06:29:51.807Z,20.24
2019-04-14T06:32:30.395Z,20.16
2019-04-14T06:35:29.165Z,20.67
2019-04-14T06:38:07.777Z,20.69
2019-04-14T06:40:47.573Z,20.63
2019-04-14T06:43:14.785Z,21.06
2019-04-14T06:45:42.027Z,21.66
2019-04-14T06:48:09.207Z,22.51
2019-04-14T06:50:36.312Z,23.37
2019-04-14T06:53:04.093Z,22.57
2019-04-14T06:55:31.265Z,21.70
2019-04-14T06:57:58.414Z,20.73
2019-04-14T07:00:25.588Z,20.15
2019-04-14T07:02:52.685Z,19.13
2019-04-14T07:05:19.878Z,19.40
2019-04-14T07:07:56.541Z,19.68
2019-04-14T07:10:16.466Z,19.39
2019-04-14T07:12:43.933Z,17.62
2019-04-14T07:15:11.130Z,18.62
2019-04-14T07:17:38.193Z,19.35
2019-04-14T07:20:05.776Z,20.84
2019-04-14T07:22:34.309Z,22.06
2019-04-14T07:25:34.594Z,22.78
2019-04-14T07:28:20.028Z,23.87
2019-04-14T07:31:59.048Z,23.67
2019-04-14T07:37:59.106Z,21.96
2019-04-14T07:40:48.931Z,22.51
2019-04-14T07:43:25.103Z,20.49
2019-04-14T07:46:16.005Z,19.86
2019-04-14T07:49:07.508Z,20.73
2019-04-14T07:51:40.309Z,21.05
2019-04-14T07:54:15.256Z,20.65
2019-04-14T07:56:59.081Z,22.40
2019-04-14T07:59:31.743Z,24.40
2019-04-14T08:02:13.371Z,23.71
2019-04-14T08:04:57.492Z,21.60
2019-04-14T08:07:25.267Z,21.17
2019-04-14T08:09:52.463Z,23.15
2019-04-14T08:12:19.940Z,24.88
2019-04-14T08:14:47.143Z,25.96
2019-04-14T08:17:14.306Z,25.65
2019-04-14T08:19:41.839Z,26.31
2019-04-14T08:22:09.064Z,26.59
2019-04-14T08:24:36.264Z,25.43
2019-04-14T08:27:03.495Z,23.97
2019-04-14T08:29:30.691Z,23.03
2019-04-14T08:31:57.844Z,24.40
2019-04-14T08:34:27.071Z,25.47
2019-04-14T08:36:54.164Z,27.56
2019-04-14T08:39:21.323Z,29.72
2019-04-14T08:42:06.163Z,29.26
2019-04-14T08:44:40.639Z,29.16
2019-04-14T08:47:30.417Z,28.66
2019-04-14T08:50:01.611Z,28.62
2019-04-14T08:53:03.500Z,29.39
2019-04-14T08:56:02.477Z,28.78
2019-04-14T08:59:01.191Z,30.27
2019-04-14T09:01:36.836Z,31.48
2019-04-14T09:04:18.548Z,32.74
2019-04-14T09:06:54.685Z,31.44
2019-04-14T09:09:35.013Z,29.33
2019-04-14T09:12:15.351Z,28.99
2019-04-14T09:14:37.955Z,28.60
2019-04-14T09:17:05.569Z,27.00
2019-04-14T09:19:32.732Z,26.38
2019-04-14T09:21:59.947Z,27.29
2019-04-14T09:24:27.099Z,27.02
2019-04-14T09:26:54.295Z,27.78
2019-04-14T09:29:21.525Z,28.62
2019-04-14T09:31:48.691Z,28.30
2019-04-14T09:34:15.788Z,27.53
2019-04-14T09:36:43.081Z,27.58
2019-04-14T09:39:10.292Z,26.93
2019-04-14T09:41:37.684Z,27.10
2019-04-14T09:44:05.344Z,24.84
2019-04-14T09:46:32.556Z,21.12
2019-04-14T09:48:59.743Z,20.32
2019-04-14T09:51:27.014Z,19.03
2019-04-14T09:53:54.527Z,17.10
2019-04-14T09:56:21.818Z,15.74
2019-04-14T09:58:49.038Z,14.93
2019-04-14T10:01:16.308Z,14.99
2019-04-14T10:03:43.495Z,15.06
2019-04-14T10:06:10.786Z,14.68
2019-04-14T10:08:38.095Z,14.46
2019-04-14T10:11:05.636Z,14.49
2019-04-14T10:13:32.829Z,14.45
2019-04-14T10:15:59.923Z,14.64
2019-04-14T10:18:27.094Z,14.80
2019-04-14T10:20:54.401Z,14.78
2019-04-14T10:23:21.759Z,14.37
2019-04-14T10:25:49.003Z,14.14
2019-04-14T10:28:16.233Z,13.68
2019-04-14T10:30:43.425Z,13.62
2019-04-14T10:33:10.593Z,13.58
2019-04-14T10:35:37.747Z,13.40
2019-04-14T10:38:05.017Z,12.89
2019-04-14T10:40:32.145Z,12.98
2019-04-14T10:42:59.363Z,13.08
2019-04-14T10:45:26.629Z,12.79
2019-04-14T10:47:53.703Z,13.00
2019-04-14T10:50:30.699Z,13.26
2019-04-14T10:52:50.285Z,13.33
2019-04-14T10:55:17.492Z,13.26
2019-04-14T10:57:44.616Z,13.18
2019-04-14T11:00:14.250Z,13.04
2019-04-14T11:02:41.729Z,13.31
2019-04-14T11:05:09.281Z,13.44
2019-04-14T11:07:36.486Z,13.67
2019-04-14T11:10:04.734Z,13.73
2019-04-14T11:12:31.892Z,13.71
2019-04-14T11:14:59.373Z,13.72
2019-04-14T11:17:26.575Z,13.86
2019-04-14T11:19:53.776Z,14.15
2019-04-14T11:22:21.625Z,14.59
2019-04-14T11:24:48.877Z,14.52
2019-04-14T11:27:16.297Z,14.36
2019-04-14T11:29:43.873Z,14.58
2019-04-14T11:32:36.701Z,13.91
2019-04-14T11:35:23.189Z,13.50
2019-04-14T11:38:09.459Z,13.30
2019-04-14T11:40:40.942Z,13.32
2019-04-14T11:43:08.344Z,13.35
2019-04-14T11:45:35.693Z,13.76
2019-04-14T11:48:02.752Z,13.56
2019-04-14T11:50:30.525Z,13.67
2019-04-14T11:52:57.725Z,13.94
2019-04-14T11:55:24.937Z,13.32
2019-04-14T11:57:53.434Z,13.38
2019-04-14T12:00:36.825Z,13.94
2019-04-14T12:03:12.305Z,14.53
2019-04-14T12:05:56.239Z,14.37
2019-04-14T12:08:38.027Z,14.92
2019-04-14T12:11:05.261Z,15.36
2019-04-14T12:13:32.468Z,14.92
2019-04-14T12:15:59.711Z,14.65
2019-04-14T12:18:27.010Z,14.33
2019-04-14T12:20:54.071Z,14.15
2019-04-14T12:23:21.665Z,14.01
2019-04-14T12:25:49.400Z,14.39
2019-04-14T12:28:17.306Z,14.65
2019-04-14T12:30:46.724Z,14.52
2019-04-14T12:33:14.550Z,14.20
2019-04-14T12:35:41.636Z,14.20
2019-04-14T12:38:09.442Z,14.35
2019-04-14T12:40:37.047Z,14.56
2019-04-14T12:43:21.968Z,14.30
2019-04-14T12:46:09.590Z,14.42
2019-04-14T12:48:59.232Z,13.81
2019-04-14T12:51:46.059Z,14.01
2019-04-14T12:54:14.042Z,14.33
2019-04-14T12:56:43.532Z,14.04
2019-04-14T12:59:18.926Z,13.87
2019-04-14T13:02:05.913Z,14.00
2019-04-14T13:04:33.171Z,14.10
2019-04-14T13:07:00.334Z,13.93
2019-04-14T13:09:27.526Z,14.17
2019-04-14T13:11:54.755Z,14.13
2019-04-14T13:14:22.421Z,14.08
2019-04-14T13:16:49.550Z,13.87
2019-04-14T13:19:16.815Z,13.77
2019-04-14T13:21:44.254Z,13.93
2019-04-14T13:24:11.465Z,13.69
2019-04-14T13:26:38.974Z,13.65
2019-04-14T13:29:06.311Z,13.70
2019-04-14T13:31:33.468Z,14.13
2019-04-14T13:34:00.991Z,14.75
2019-04-14T13:36:28.167Z,15.10
2019-04-14T13:38:55.349Z,14.92
2019-04-14T13:41:22.654Z,14.66
2019-04-14T13:43:49.897Z,14.75
2019-04-14T13:46:17.129Z,15.10
2019-04-14T13:48:44.418Z,15.25
2019-04-14T13:51:11.636Z,15.28
2019-04-14T13:53:38.820Z,14.89
2019-04-14T13:56:06.002Z,14.58
2019-04-14T13:58:33.801Z,14.26
2019-04-14T14:01:01.299Z,13.93
2019-04-14T14:03:28.512Z,13.48
2019-04-14T14:05:55.776Z,13.39
2019-04-14T14:08:23.271Z,13.81
2019-04-14T14:10:54.160Z,14.20
2019-04-14T14:13:36.321Z,14.25
2019-04-14T14:16:28.717Z,14.34
2019-04-14T14:19:13.915Z,14.01
2019-04-14T14:22:05.780Z,13.24
2019-04-14T14:24:48.094Z,12.92
2019-04-14T14:27:15.335Z,12.47
2019-04-14T14:29:43.071Z,12.65
2019-04-14T14:32:24.557Z,12.50
2019-04-14T14:34:51.758Z,12.82
2019-04-14T14:37:19.065Z,13.18
2019-04-14T14:39:46.280Z,12.68
2019-04-14T14:42:13.391Z,12.32
2019-04-14T14:44:45.473Z,12.38
2019-04-14T14:47:21.129Z,12.46
2019-04-14T14:50:07.895Z,12.20
2019-04-14T14:52:36.267Z,12.20
2019-04-14T14:55:04.109Z,12.55
2019-04-14T14:57:31.210Z,12.61
2019-04-14T14:59:58.519Z,12.48
2019-04-14T15:02:25.721Z,12.57
2019-04-14T15:04:52.907Z,12.38
2019-04-14T15:07:20.148Z,12.49
2019-04-14T15:09:47.351Z,12.63
2019-04-14T15:12:14.603Z,12.66
2019-04-14T15:14:41.817Z,12.41
2019-04-14T15:17:09.064Z,11.91
2019-04-14T15:19:36.249Z,12.05
2019-04-14T15:22:03.750Z,11.98
2019-04-14T15:24:30.957Z,11.69
2019-04-14T15:26:58.265Z,11.69
2019-04-14T15:29:25.536Z,11.72
2019-04-14T15:31:52.683Z,11.09
2019-04-14T15:34:19.896Z,11.12
2019-04-14T15:36:47.175Z,11.01
2019-04-14T15:39:14.433Z,10.98
2019-04-14T15:41:41.626Z,10.86
2019-04-14T15:44:08.992Z,10.73
2019-04-14T15:46:36.195Z,10.74
2019-04-14T15:49:03.391Z,10.90
2019-04-14T15:51:30.870Z,10.93
2019-04-14T15:53:58.117Z,10.80
2019-04-14T15:57:03.206Z,10.63
2019-04-14T15:59:48.945Z,10.32
2019-04-14T16:02:22.084Z,10.10
2019-04-14T16:04:58.115Z,9.93
2019-04-14T16:07:45.066Z,9.65
2019-04-14T16:10:45.537Z,9.55
2019-04-14T16:13:21.462Z,9.57
2019-04-14T16:16:14.243Z,9.55
2019-04-14T16:19:13.342Z,9.50
2019-04-14T16:21:40.524Z,9.58
2019-04-14T16:24:07.790Z,9.60
2019-04-14T16:26:49.064Z,9.49
2019-04-14T16:29:35.786Z,9.43
2019-04-14T16:32:06.005Z,9.29
2019-04-14T16:34:38.862Z,9.15
2019-04-14T16:37:06.150Z,9.09
2019-04-14T16:39:33.368Z,9.08
2019-04-14T16:42:00.489Z,9.03
2019-04-14T16:44:27.662Z,9.02
2019-04-14T16:46:55.151Z,8.97
2019-04-14T16:49:22.894Z,9.04
2019-04-14T16:51:53.845Z,9.05
2019-04-14T16:54:40.709Z,9.07
2019-04-14T16:57:29.409Z,9.00
2019-04-14T16:59:58.570Z,8.96
2019-04-14T17:02:26.053Z,8.95
2019-04-14T17:04:53.345Z,9.05
2019-04-14T17:07:20.602Z,9.06
2019-04-14T17:09:47.874Z,9.00
2019-04-14T17:12:15.595Z,8.95
2019-04-14T17:14:48.676Z,8.95
2019-04-14T17:17:36.881Z,8.89
2019-04-14T17:20:20.379Z,8.87
2019-04-14T17:23:14.551Z,8.87
2019-04-14T17:25:55.459Z,8.73
2019-04-14T17:28:41.883Z,8.82
2019-04-14T17:31:34.663Z,8.76
2019-04-14T17:34:14.147Z,8.80
2019-04-14T17:37:07.084Z,8.79
2019-04-14T17:39:39.642Z,8.69
2019-04-14T17:42:26.476Z,8.59
2019-04-14T17:45:00.509Z,8.49
2019-04-14T17:47:45.827Z,8.47
2019-04-14T17:50:40.683Z,8.48
2019-04-14T17:53:18.557Z,8.48
2019-04-14T17:55:52.077Z,8.55
2019-04-14T17:58:31.699Z,8.55
2019-04-14T18:01:22.189Z,8.46
2019-04-14T18:04:15.814Z,8.41
2019-04-14T18:06:57.278Z,8.38
2019-04-14T18:09:43.268Z,8.39
2019-04-14T18:12:36.101Z,8.30
2019-04-14T18:15:42.233Z,8.37
2019-04-14T18:18:25.292Z,8.35
2019-04-14T18:20:55.672Z,8.22
2019-04-14T18:23:23.565Z,8.20
2019-04-14T18:25:50.937Z,8.15
2019-04-14T18:28:27.165Z,8.12
2019-04-14T18:31:31.903Z,8.05
2019-04-14T18:34:27.811Z,8.02
2019-04-14T18:37:01.540Z,8.08
2019-04-14T18:39:54.071Z,8.01
2019-04-14T18:42:31.488Z,8.00
2019-04-14T18:45:19.865Z,8.12
2019-04-14T18:48:09.671Z,8.14
2019-04-14T18:50:42.837Z,8.04
2019-04-14T18:53:20.101Z,7.96
2019-04-14T18:56:09.900Z,7.97
2019-04-14T18:59:08.873Z,7.94
2019-04-14T19:01:38.483Z,7.88
2019-04-14T19:04:05.831Z,7.84
2019-04-14T19:06:33.095Z,7.85
2019-04-14T19:09:00.410Z,7.81
2019-04-14T19:11:47.327Z,7.84
2019-04-14T19:14:18.903Z,7.81
2019-04-14T19:16:49.941Z,7.81
2019-04-14T19:19:18.437Z,7.78
2019-04-14T19:21:45.635Z,7.72
2019-04-14T19:24:13.046Z,7.66
2019-04-14T19:26:40.213Z,7.68
2019-04-14T19:29:07.331Z,7.58
2019-04-14T19:31:34.768Z,7.58
2019-04-14T19:34:01.934Z,7.58
2019-04-14T19:36:29.230Z,7.71
2019-04-14T19:38:56.502Z,7.53
2019-04-14T19:41:23.992Z,7.51
2019-04-14T19:43:51.258Z,7.42
2019-04-14T19:46:18.736Z,7.41
2019-04-14T19:48:45.954Z,7.37
2019-04-14T19:51:13.154Z,7.40
2019-04-14T19:53:40.350Z,7.45
2019-04-14T19:56:07.548Z,7.37
2019-04-14T19:58:34.806Z,7.41
2019-04-14T20:01:03.412Z,7.38
2019-04-14T20:03:31.196Z,7.32
2019-04-14T20:05:58.829Z,7.27
2019-04-14T20:08:26.097Z,7.29
2019-04-14T20:10:54.631Z,7.32
2019-04-14T20:13:22.334Z,7.30
2019-04-14T20:16:18.173Z,7.41
2019-04-14T20:19:10.763Z,7.29
2019-04-14T20:21:50.024Z,7.20
2019-04-14T20:24:21.997Z,7.19
2019-04-14T20:27:02.349Z,7.17
2019-04-14T20:29:36.098Z,7.14
2019-04-14T20:32:35.003Z,7.05
2019-04-14T20:35:02.301Z,7.02
2019-04-14T20:37:29.860Z,7.19
2019-04-14T20:39:57.367Z,7.08
2019-04-14T20:42:24.666Z,6.91
2019-04-14T20:44:51.854Z,6.85
2019-04-14T20:47:19.118Z,6.81
2019-04-14T20:49:46.457Z,6.87
2019-04-14T20:52:13.678Z,6.89
2019-04-14T20:54:40.896Z,6.85
2019-04-14T20:57:08.672Z,6.86
2019-04-14T20:59:35.873Z,6.97
2019-04-14T21:02:23.603Z,6.93
2019-04-14T21:05:10.506Z,6.76
2019-04-14T21:07:56.662Z,6.84
2019-04-14T21:10:31.706Z,6.89
2019-04-14T21:13:07.906Z,6.84
2019-04-14T21:15:47.491Z,6.92
2019-04-14T21:18:34.286Z,6.88
2019-04-14T21:21:11.335Z,6.85
2019-04-14T21:24:12.996Z,6.86
2019-04-14T21:27:05.827Z,6.83
2019-04-14T21:29:55.461Z,6.87
2019-04-14T21:32:26.483Z,6.94
2019-04-14T21:35:00.288Z,6.99
2019-04-14T21:37:48.693Z,6.97
2019-04-14T21:40:22.202Z,6.89
2019-04-14T21:42:49.364Z,6.85
2019-04-14T21:45:16.608Z,6.74
2019-04-14T21:47:43.746Z,6.74
2019-04-14T21:50:11.310Z,6.73
2019-04-14T21:52:40.739Z,6.78
2019-04-14T21:55:08.225Z,6.73
2019-04-14T21:57:39.946Z,6.74
2019-04-14T22:00:35.237Z,6.75
2019-04-14T22:03:21.018Z,6.81
2019-04-14T22:06:10.139Z,6.77
2019-04-14T22:08:41.622Z,6.73
2019-04-14T22:11:13.296Z,6.73
2019-04-14T22:13:41.306Z,6.96
2019-04-14T22:16:08.563Z,6.97
2019-04-14T22:18:36.089Z,6.89
2019-04-14T22:21:03.314Z,6.85
2019-04-14T22:23:30.576Z,6.76
2019-04-14T22:25:58.184Z,6.66
2019-04-14T22:28:25.440Z,6.64
2019-04-14T22:30:52.709Z,6.67
2019-04-14T22:33:19.921Z,6.67
2019-04-14T22:35:47.354Z,6.75
2019-04-14T22:38:14.533Z,6.76
2019-04-14T22:40:41.789Z,6.72
2019-04-14T22:43:09.007Z,6.68
2019-04-14T22:45:36.230Z,6.43
2019-04-14T22:48:03.556Z,6.28
2019-04-14T22:50:30.666Z,6.13
2019-04-14T22:52:57.952Z,5.93
2019-04-14T22:55:25.457Z,5.91
2019-04-14T22:57:52.628Z,6.00
2019-04-14T23:00:45.865Z,6.03
2019-04-14T23:03:31.195Z,5.96
2019-04-14T23:06:03.619Z,5.92
2019-04-14T23:08:48.364Z,5.77
2019-04-14T23:11:50.154Z,5.73
2019-04-14T23:14:31.595Z,5.70
2019-04-14T23:17:17.105Z,5.79
2019-04-14T23:19:52.656Z,5.92
2019-04-14T23:22:48.266Z,5.91
2019-04-14T23:25:15.455Z,5.83
2019-04-14T23:27:42.655Z,5.87
2019-04-14T23:30:10.205Z,5.80
2019-04-14T23:32:37.397Z,5.73
2019-04-14T23:35:04.649Z,5.67
2019-04-14T23:37:32.165Z,5.56
2019-04-14T23:39:59.349Z,5.47
2019-04-14T23:42:26.565Z,5.47
2019-04-14T23:44:53.776Z,5.38
2019-04-14T23:47:20.985Z,5.23
2019-04-14T23:49:48.064Z,5.17
2019-04-14T23:52:15.281Z,5.23
2019-04-14T23:54:42.664Z,5.30
2019-04-14T23:57:10.207Z,5.46
2019-04-14T23:59:37.468Z,5.52
